createdAt,value
2024-04-25T00:03:50.471Z,7.05
2024-04-25T00:08:48.472Z,6.30
2024-04-25T00:13:43.732Z,4.78
2024-04-25T00:18:39.009Z,5.85
2024-04-25T00:23:34.328Z,6.03
2024-04-25T00:28:32.455Z,7.10
2024-04-25T00:33:27.831Z,3.65
2024-04-25T00:38:23.247Z,6.53
2024-04-25T00:43:19.192Z,6.63
2024-04-25T00:48:17.839Z,4.28
2024-04-25T00:53:13.731Z,5.40
2024-04-25T00:58:09.490Z,5.22
2024-04-25T01:03:06.298Z,4.28
2024-04-25T01:08:04.552Z,6.05
2024-04-25T01:12:59.859Z,3.58
2024-04-25T01:17:56.401Z,5.93
2024-04-25T01:22:55.399Z,3.13
2024-04-25T01:27:54.280Z,4.82
2024-04-25T01:32:50.093Z,4.70
2024-04-25T01:37:45.602Z,6.43
2024-04-25T01:42:40.882Z,5.22
2024-04-25T01:47:41.669Z,5.03
2024-04-25T01:52:36.999Z,5.78
2024-04-25T01:57:32.308Z,8.13
2024-04-25T02:02:27.629Z,6.25
2024-04-25T02:07:25.635Z,6.03
2024-04-25T02:12:21.836Z,5.97
2024-04-25T02:17:17.576Z,8.25
2024-04-25T02:22:28.596Z,5.55
2024-04-25T02:27:26.574Z,9.63
2024-04-25T02:32:21.927Z,7.68
2024-04-25T02:37:17.303Z,5.57
2024-04-25T02:42:12.666Z,4.53
2024-04-25T02:47:10.731Z,7.35
2024-04-25T02:52:06.085Z,6.88
2024-04-25T02:57:01.470Z,6.53
2024-04-25T03:01:56.969Z,5.65
2024-04-25T03:06:54.989Z,5.82
2024-04-25T03:11:50.703Z,5.25
2024-04-25T03:16:46.046Z,6.75
2024-04-25T03:21:41.367Z,7.75
2024-04-25T03:26:39.361Z,6.25
2024-04-25T03:31:36.412Z,6.90
2024-04-25T03:36:31.803Z,5.82
2024-04-25T03:41:29.172Z,5.97
2024-04-25T03:46:27.146Z,5.22
2024-04-25T03:51:25.333Z,4.65
2024-04-25T03:56:20.668Z,5.47
2024-04-25T04:01:17.403Z,4.10
2024-04-25T04:06:21.242Z,7.10
2024-04-25T04:11:16.618Z,5.38
2024-04-25T04:16:12.820Z,6.10
2024-04-25T04:21:10.580Z,7.38
2024-04-25T04:26:10.588Z,6.32
2024-04-25T04:31:05.952Z,6.15
2024-04-25T04:36:01.211Z,5.75
2024-04-25T04:40:56.662Z,6.28
2024-04-25T04:45:57.237Z,7.05
2024-04-25T04:50:52.524Z,8.07
2024-04-25T04:55:48.086Z,8.27
2024-04-25T05:00:43.349Z,6.57
2024-04-25T05:05:41.411Z,6.47
2024-04-25T05:10:36.903Z,6.38
2024-04-25T05:15:32.379Z,8.80
2024-04-25T05:20:27.771Z,11.32
2024-04-25T05:25:27.112Z,7.38
2024-04-25T05:30:23.386Z,6.87
2024-04-25T05:35:19.028Z,10.55
2024-04-25T05:40:15.028Z,9.95
2024-04-25T05:45:13.283Z,9.80
2024-04-25T05:50:09.911Z,6.63
2024-04-25T05:55:06.172Z,7.30
2024-04-25T06:00:01.600Z,8.20
2024-04-25T06:05:05.037Z,7.05
2024-04-25T06:10:00.568Z,10.13
2024-04-25T06:14:55.974Z,10.02
2024-04-25T06:19:51.240Z,9.07
2024-04-25T06:24:49.221Z,10.23
2024-04-25T06:29:44.591Z,10.23
2024-04-25T06:34:39.956Z,11.55
2024-04-25T06:39:38.203Z,10.57
2024-04-25T06:44:40.669Z,11.63
2024-04-25T06:49:38.940Z,12.20
2024-04-25T06:54:34.269Z,9.20
2024-04-25T06:59:29.633Z,10.15
2024-04-25T07:04:30.659Z,10.60
2024-04-25T07:09:26.162Z,7.65
2024-04-25T07:14:21.551Z,9.23
2024-04-25T07:19:19.206Z,10.85
2024-04-25T07:24:17.344Z,11.50
2024-04-25T07:29:12.789Z,10.63
2024-04-25T07:34:08.148Z,12.32
2024-04-25T07:39:03.552Z,11.90
2024-04-25T07:44:01.659Z,8.93
2024-04-25T07:48:57.608Z,11.57
2024-04-25T07:53:55.295Z,9.93
2024-04-25T07:58:51.232Z,10.50
2024-04-25T08:03:49.389Z,9.20
2024-04-25T08:08:45.406Z,10.90
2024-04-25T08:13:40.859Z,9.75
2024-04-25T08:18:37.921Z,11.32
2024-04-25T08:23:36.258Z,10.93
2024-04-25T08:28:31.671Z,9.73
2024-04-25T08:33:27.238Z,12.82
2024-04-25T08:38:23.064Z,10.25
2024-04-25T08:43:21.351Z,10.80
2024-04-25T08:48:18.306Z,12.48
2024-04-25T08:53:14.467Z,15.55
2024-04-25T08:58:09.870Z,13.85
2024-04-25T09:03:12.047Z,14.57
2024-04-25T09:08:08.797Z,12.60
2024-04-25T09:13:04.147Z,11.63
2024-04-25T09:18:01.525Z,11.23
2024-04-25T09:23:00.964Z,13.15
2024-04-25T09:27:59.543Z,10.77
2024-04-25T09:32:55.148Z,11.35
2024-04-25T09:37:51.319Z,11.15
2024-04-25T09:42:50.236Z,14.75
2024-04-25T09:47:52.051Z,12.25
2024-04-25T09:52:53.714Z,9.60
2024-04-25T09:57:57.693Z,12.27
2024-04-25T10:02:54.181Z,12.25
2024-04-25T10:07:51.512Z,15.77
2024-04-25T10:12:55.752Z,12.88
2024-04-25T10:17:54.939Z,14.50
2024-04-25T10:22:59.308Z,10.90
2024-04-25T10:28:02.725Z,11.90
2024-04-25T10:32:58.422Z,14.60
2024-04-25T10:37:54.589Z,10.25
2024-04-25T10:43:06.053Z,11.55
2024-04-25T10:48:02.207Z,10.98
2024-04-25T10:52:57.996Z,10.07
2024-04-25T10:57:53.935Z,11.57
2024-04-25T11:02:55.492Z,10.90
2024-04-25T11:07:53.624Z,11.40
2024-04-25T11:12:49.028Z,13.27
2024-04-25T11:17:56.123Z,10.20
2024-04-25T11:23:11.686Z,10.68
2024-04-25T11:28:10.045Z,9.50
2024-04-25T11:33:06.168Z,8.52
2024-04-25T11:38:04.277Z,7.32
2024-04-25T11:43:00.270Z,7.57
2024-04-25T11:47:55.864Z,7.20
2024-04-25T11:53:00.542Z,7.07
2024-04-25T11:58:01.365Z,5.50
2024-04-25T12:03:19.816Z,7.65
2024-04-25T12:08:15.900Z,7.72
2024-04-25T12:13:14.274Z,10.80
2024-04-25T12:18:10.188Z,8.77
2024-04-25T12:23:05.715Z,9.43
2024-04-25T12:28:01.307Z,7.85
2024-04-25T12:33:05.660Z,7.88
2024-04-25T12:38:01.245Z,8.82
2024-04-25T12:43:03.541Z,8.30
2024-04-25T12:48:06.309Z,7.72
2024-04-25T12:53:05.103Z,7.85
2024-04-25T12:58:03.526Z,9.55
2024-04-25T13:02:59.019Z,7.43
2024-04-25T13:07:57.110Z,8.68
2024-04-25T13:12:52.772Z,9.48
2024-04-25T13:17:59.686Z,11.35
2024-04-25T13:22:57.826Z,7.63
2024-04-25T13:27:53.298Z,9.93
2024-04-25T13:32:52.112Z,9.88
2024-04-25T13:37:48.052Z,9.50
2024-04-25T13:42:46.424Z,8.27
2024-04-25T13:47:42.062Z,8.02
2024-04-25T13:52:37.565Z,8.48
2024-04-25T13:57:34.585Z,10.18
2024-04-25T14:02:36.436Z,9.77
2024-04-25T14:07:31.823Z,11.05
2024-04-25T14:12:29.678Z,21.00
2024-04-25T14:17:25.533Z,11.95
2024-04-25T14:22:23.908Z,11.40
2024-04-25T14:27:35.001Z,12.23
2024-04-25T14:32:36.280Z,14.48
2024-04-25T14:37:34.709Z,14.23
2024-04-25T14:42:30.081Z,12.75
2024-04-25T14:47:25.477Z,12.18
2024-04-25T14:52:20.822Z,12.90
2024-04-25T14:57:19.047Z,11.25
2024-04-25T15:02:14.493Z,12.90
2024-04-25T15:07:13.822Z,11.38
2024-04-25T15:12:10.919Z,12.77
2024-04-25T15:17:10.243Z,14.15
2024-04-25T15:22:05.783Z,15.27
2024-04-25T15:27:07.025Z,13.63
2024-04-25T15:32:05.500Z,13.73
2024-04-25T15:37:03.584Z,14.00
2024-04-25T15:41:59.158Z,15.95
2024-04-25T15:46:55.438Z,15.27
2024-04-25T15:51:50.768Z,10.50
2024-04-25T15:56:50.930Z,11.23
2024-04-25T16:01:48.090Z,13.23
2024-04-25T16:06:43.614Z,12.45
2024-04-25T16:11:46.545Z,7.07
2024-04-25T16:16:44.888Z,5.07
2024-04-25T16:21:41.321Z,5.47
2024-04-25T16:26:36.910Z,5.97
2024-04-25T16:31:32.441Z,4.93
2024-04-25T16:36:33.053Z,3.95
2024-04-25T16:41:31.674Z,4.20
2024-04-25T16:46:27.043Z,5.63
2024-04-25T16:51:25.318Z,4.00
2024-04-25T16:56:26.328Z,4.97
2024-04-25T17:01:24.111Z,6.13
2024-04-25T17:06:19.541Z,8.23
2024-04-25T17:11:23.229Z,11.15
2024-04-25T17:16:21.445Z,9.27
2024-04-25T17:21:16.880Z,12.02
2024-04-25T17:26:16.186Z,9.98
2024-04-25T17:31:13.509Z,10.13
2024-04-25T17:36:15.139Z,8.07
2024-04-25T17:41:13.497Z,6.35
2024-04-25T17:46:15.934Z,8.77
2024-04-25T17:51:14.646Z,6.28
2024-04-25T17:56:14.965Z,6.90
2024-04-25T18:01:17.838Z,5.97
2024-04-25T18:06:15.995Z,6.13
2024-04-25T18:11:11.828Z,5.10
2024-04-25T18:16:07.564Z,6.22
2024-04-25T18:21:02.952Z,7.57
2024-04-25T18:26:01.267Z,7.22
2024-04-25T18:31:00.463Z,8.05
2024-04-25T18:35:55.940Z,7.28
2024-04-25T18:40:58.611Z,6.90
2024-04-25T18:46:04.094Z,6.40
2024-04-25T18:50:59.566Z,7.18
2024-04-25T18:55:56.284Z,10.73
2024-04-25T19:00:51.802Z,5.47
2024-04-25T19:05:49.995Z,6.20
2024-04-25T19:10:45.554Z,6.07
2024-04-25T19:15:41.159Z,6.13
2024-04-25T19:20:38.285Z,5.90
2024-04-25T19:25:37.535Z,6.28
2024-04-25T19:30:32.931Z,5.78
2024-04-25T19:35:31.896Z,5.90
2024-04-25T19:40:28.582Z,6.20
2024-04-25T19:45:26.695Z,6.00
2024-04-25T19:50:22.371Z,5.88
2024-04-25T19:55:18.370Z,7.05
2024-04-25T20:00:14.705Z,6.32
2024-04-25T20:05:13.606Z,5.70
2024-04-25T20:10:09.518Z,7.93
2024-04-25T20:15:05.281Z,6.78
2024-04-25T20:20:16.702Z,9.25
2024-04-25T20:25:17.371Z,5.82
2024-04-25T20:30:13.597Z,6.95
2024-04-25T20:35:12.691Z,5.60
2024-04-25T20:40:09.774Z,7.25
2024-04-25T20:45:11.244Z,8.43
2024-04-25T20:50:06.847Z,9.20
2024-04-25T20:55:02.294Z,7.60
2024-04-25T20:59:59.844Z,8.60
2024-04-25T21:04:57.982Z,7.22
2024-04-25T21:09:53.320Z,5.75
2024-04-25T21:14:48.690Z,8.88
2024-04-25T21:19:44.509Z,6.20
2024-04-25T21:24:43.632Z,6.47
2024-04-25T21:29:40.651Z,7.43
2024-04-25T21:34:36.059Z,9.52
2024-04-25T21:39:31.377Z,6.03
2024-04-25T21:44:31.199Z,6.13
2024-04-25T21:49:26.720Z,6.47
2024-04-25T21:54:22.203Z,8.25
2024-04-25T21:59:17.796Z,5.20
2024-04-25T22:04:15.808Z,6.35
2024-04-25T22:09:11.103Z,5.50
2024-04-25T22:14:06.893Z,5.95
2024-04-25T22:19:02.346Z,5.57
2024-04-25T22:24:00.598Z,6.00
2024-04-25T22:28:56.051Z,6.60
2024-04-25T22:33:51.458Z,6.90
2024-04-25T22:38:46.846Z,6.05
2024-04-25T22:43:45.005Z,5.22
2024-04-25T22:48:40.500Z,5.82
2024-04-25T22:53:37.044Z,5.00
2024-04-25T22:58:32.535Z,5.70
2024-04-25T23:03:31.881Z,6.13
2024-04-25T23:08:30.883Z,5.25
2024-04-25T23:13:26.520Z,7.95
2024-04-25T23:18:24.892Z,7.10
2024-04-25T23:23:23.002Z,5.25
2024-04-25T23:28:18.426Z,6.30
2024-04-25T23:33:14.114Z,6.63
2024-04-25T23:38:09.584Z,5.88
2024-04-25T23:43:07.939Z,6.35
2024-04-25T23:48:05.438Z,5.35
2024-04-25T23:53:00.957Z,6.70
2024-04-25T23:57:56.361Z,7.00
